sensor_id;sensor_type;location;lat;lon;timestamp;P1;durP1;ratioP1;P2;durP2;ratioP2
40701;SDS011;26387;50.114;8.662;2022-08-19T00:00:25;25.25;;;17.38;;
40701;SDS011;26387;50.114;8.662;2022-08-19T00:02:52;23.08;;;17.70;;
40701;SDS011;26387;50.114;8.662;2022-08-19T00:05:18;24.83;;;16.98;;
40701;SDS011;26387;50.114;8.662;2022-08-19T00:07:45;24.42;;;17.08;;
40701;SDS011;26387;50.114;8.662;2022-08-19T00:10:12;23.95;;;17.15;;
40701;SDS011;26387;50.114;8.662;2022-08-19T00:12:40;22.90;;;16.88;;
40701;SDS011;26387;50.114;8.662;2022-08-19T00:15:10;23.98;;;17.00;;
40701;SDS011;26387;50.114;8.662;2022-08-19T00:17:39;24.87;;;16.80;;
40701;SDS011;26387;50.114;8.662;2022-08-19T00:20:06;25.48;;;16.98;;
40701;SDS011;26387;50.114;8.662;2022-08-19T00:22:37;23.63;;;16.80;;
40701;SDS011;26387;50.114;8.662;2022-08-19T00:25:05;23.08;;;16.75;;
40701;SDS011;26387;50.114;8.662;2022-08-19T00:27:31;24.58;;;16.42;;
40701;SDS011;26387;50.114;8.662;2022-08-19T00:29:57;24.90;;;18.02;;
40701;SDS011;26387;50.114;8.662;2022-08-19T00:32:23;25.02;;;16.50;;
40701;SDS011;26387;50.114;8.662;2022-08-19T00:34:50;21.35;;;16.05;;
40701;SDS011;26387;50.114;8.662;2022-08-19T00:37:19;24.23;;;16.85;;
40701;SDS011;26387;50.114;8.662;2022-08-19T00:39:47;24.27;;;17.55;;
40701;SDS011;26387;50.114;8.662;2022-08-19T00:42:14;24.50;;;17.10;;
40701;SDS011;26387;50.114;8.662;2022-08-19T00:44:40;25.25;;;16.52;;
40701;SDS011;26387;50.114;8.662;2022-08-19T00:47:06;31.45;;;18.42;;
40701;SDS011;26387;50.114;8.662;2022-08-19T00:49:34;22.05;;;16.52;;
40701;SDS011;26387;50.114;8.662;2022-08-19T00:54:32;25.88;;;18.08;;
40701;SDS011;26387;50.114;8.662;2022-08-19T00:56:58;23.90;;;17.23;;
40701;SDS011;26387;50.114;8.662;2022-08-19T00:59:26;21.58;;;16.65;;
40701;SDS011;26387;50.114;8.662;2022-08-19T01:01:54;24.27;;;17.33;;
40701;SDS011;26387;50.114;8.662;2022-08-19T01:04:19;23.30;;;16.73;;
40701;SDS011;26387;50.114;8.662;2022-08-19T01:06:45;24.52;;;16.63;;
40701;SDS011;26387;50.114;8.662;2022-08-19T01:09:11;24.33;;;15.77;;
40701;SDS011;26387;50.114;8.662;2022-08-19T01:11:38;23.63;;;15.82;;
40701;SDS011;26387;50.114;8.662;2022-08-19T01:14:08;26.42;;;15.70;;
40701;SDS011;26387;50.114;8.662;2022-08-19T01:16:34;22.13;;;16.40;;
40701;SDS011;26387;50.114;8.662;2022-08-19T01:19:02;21.35;;;15.88;;
40701;SDS011;26387;50.114;8.662;2022-08-19T01:21:38;21.02;;;15.07;;
40701;SDS011;26387;50.114;8.662;2022-08-19T01:24:08;22.85;;;14.85;;
40701;SDS011;26387;50.114;8.662;2022-08-19T01:26:38;21.50;;;14.63;;
40701;SDS011;26387;50.114;8.662;2022-08-19T01:29:07;21.63;;;15.27;;
40701;SDS011;26387;50.114;8.662;2022-08-19T01:31:32;18.98;;;14.30;;
40701;SDS011;26387;50.114;8.662;2022-08-19T01:33:59;22.23;;;14.82;;
40701;SDS011;26387;50.114;8.662;2022-08-19T01:36:28;19.92;;;14.23;;
40701;SDS011;26387;50.114;8.662;2022-08-19T01:41:25;22.75;;;15.45;;
40701;SDS011;26387;50.114;8.662;2022-08-19T01:43:51;19.25;;;14.23;;
40701;SDS011;26387;50.114;8.662;2022-08-19T01:46:18;23.55;;;14.73;;
40701;SDS011;26387;50.114;8.662;2022-08-19T01:48:44;19.83;;;14.88;;
40701;SDS011;26387;50.114;8.662;2022-08-19T01:51:11;20.50;;;15.23;;
40701;SDS011;26387;50.114;8.662;2022-08-19T01:53:37;19.50;;;14.35;;
40701;SDS011;26387;50.114;8.662;2022-08-19T01:56:04;21.30;;;14.52;;
40701;SDS011;26387;50.114;8.662;2022-08-19T01:58:32;19.42;;;14.18;;
40701;SDS011;26387;50.114;8.662;2022-08-19T02:01:11;21.92;;;13.85;;
40701;SDS011;26387;50.114;8.662;2022-08-19T02:03:37;19.58;;;14.90;;
40701;SDS011;26387;50.114;8.662;2022-08-19T02:06:02;20.63;;;14.57;;
40701;SDS011;26387;50.114;8.662;2022-08-19T02:08:30;22.50;;;15.20;;
40701;SDS011;26387;50.114;8.662;2022-08-19T02:10:58;25.52;;;15.20;;
40701;SDS011;26387;50.114;8.662;2022-08-19T02:13:24;21.23;;;14.43;;
40701;SDS011;26387;50.114;8.662;2022-08-19T02:15:51;18.85;;;14.23;;
40701;SDS011;26387;50.114;8.662;2022-08-19T02:18:17;24.65;;;15.05;;
40701;SDS011;26387;50.114;8.662;2022-08-19T02:20:43;22.20;;;14.88;;
40701;SDS011;26387;50.114;8.662;2022-08-19T02:23:10;22.67;;;15.00;;
40701;SDS011;26387;50.114;8.662;2022-08-19T02:25:36;21.20;;;14.75;;
40701;SDS011;26387;50.114;8.662;2022-08-19T02:28:02;23.95;;;14.75;;
40701;SDS011;26387;50.114;8.662;2022-08-19T02:30:28;19.83;;;14.40;;
40701;SDS011;26387;50.114;8.662;2022-08-19T02:32:54;23.10;;;14.75;;
40701;SDS011;26387;50.114;8.662;2022-08-19T02:35:20;26.20;;;14.55;;
40701;SDS011;26387;50.114;8.662;2022-08-19T02:37:45;21.73;;;14.45;;
40701;SDS011;26387;50.114;8.662;2022-08-19T02:40:30;21.73;;;13.38;;
40701;SDS011;26387;50.114;8.662;2022-08-19T02:42:59;19.90;;;13.73;;
40701;SDS011;26387;50.114;8.662;2022-08-19T02:45:25;19.88;;;14.60;;
40701;SDS011;26387;50.114;8.662;2022-08-19T02:47:51;18.50;;;12.90;;
40701;SDS011;26387;50.114;8.662;2022-08-19T02:50:17;18.98;;;13.07;;
40701;SDS011;26387;50.114;8.662;2022-08-19T02:52:43;19.20;;;14.02;;
40701;SDS011;26387;50.114;8.662;2022-08-19T02:55:09;19.55;;;13.60;;
40701;SDS011;26387;50.114;8.662;2022-08-19T02:57:35;18.08;;;13.52;;
40701;SDS011;26387;50.114;8.662;2022-08-19T03:00:03;19.27;;;13.63;;
40701;SDS011;26387;50.114;8.662;2022-08-19T03:02:33;17.90;;;13.55;;
40701;SDS011;26387;50.114;8.662;2022-08-19T03:04:59;22.70;;;13.50;;
40701;SDS011;26387;50.114;8.662;2022-08-19T03:07:24;18.92;;;13.20;;
40701;SDS011;26387;50.114;8.662;2022-08-19T03:09:50;22.40;;;14.00;;
40701;SDS011;26387;50.114;8.662;2022-08-19T03:12:15;20.58;;;14.05;;
40701;SDS011;26387;50.114;8.662;2022-08-19T03:14:41;19.25;;;13.63;;
40701;SDS011;26387;50.114;8.662;2022-08-19T03:17:06;18.65;;;13.45;;
40701;SDS011;26387;50.114;8.662;2022-08-19T03:19:33;19.67;;;13.80;;
40701;SDS011;26387;50.114;8.662;2022-08-19T03:21:58;20.33;;;13.57;;
40701;SDS011;26387;50.114;8.662;2022-08-19T03:24:24;23.73;;;14.73;;
40701;SDS011;26387;50.114;8.662;2022-08-19T03:26:51;18.35;;;13.05;;
40701;SDS011;26387;50.114;8.662;2022-08-19T03:29:22;19.40;;;13.40;;
40701;SDS011;26387;50.114;8.662;2022-08-19T03:31:48;18.48;;;13.85;;
40701;SDS011;26387;50.114;8.662;2022-08-19T03:34:17;18.75;;;13.23;;
40701;SDS011;26387;50.114;8.662;2022-08-19T03:36:45;20.55;;;13.90;;
40701;SDS011;26387;50.114;8.662;2022-08-19T03:39:11;19.23;;;13.98;;
40701;SDS011;26387;50.114;8.662;2022-08-19T03:41:38;22.90;;;14.20;;
40701;SDS011;26387;50.114;8.662;2022-08-19T03:44:05;20.23;;;13.27;;
40701;SDS011;26387;50.114;8.662;2022-08-19T03:46:32;20.20;;;13.05;;
40701;SDS011;26387;50.114;8.662;2022-08-19T03:48:59;20.70;;;12.82;;
40701;SDS011;26387;50.114;8.662;2022-08-19T03:51:29;17.33;;;12.50;;
40701;SDS011;26387;50.114;8.662;2022-08-19T03:53:58;17.10;;;12.23;;
40701;SDS011;26387;50.114;8.662;2022-08-19T03:56:25;16.33;;;12.45;;
40701;SDS011;26387;50.114;8.662;2022-08-19T03:58:53;16.67;;;12.70;;
40701;SDS011;26387;50.114;8.662;2022-08-19T04:01:23;17.17;;;12.98;;
40701;SDS011;26387;50.114;8.662;2022-08-19T04:03:55;16.70;;;12.23;;
40701;SDS011;26387;50.114;8.662;2022-08-19T04:06:23;18.45;;;12.57;;
40701;SDS011;26387;50.114;8.662;2022-08-19T04:08:55;21.52;;;12.88;;
40701;SDS011;26387;50.114;8.662;2022-08-19T04:11:22;15.52;;;12.45;;
40701;SDS011;26387;50.114;8.662;2022-08-19T04:13:50;18.58;;;13.38;;
40701;SDS011;26387;50.114;8.662;2022-08-19T04:16:18;17.83;;;12.30;;
40701;SDS011;26387;50.114;8.662;2022-08-19T04:18:45;20.77;;;12.45;;
40701;SDS011;26387;50.114;8.662;2022-08-19T04:21:15;17.13;;;12.07;;
40701;SDS011;26387;50.114;8.662;2022-08-19T04:23:45;21.02;;;12.82;;
40701;SDS011;26387;50.114;8.662;2022-08-19T04:26:13;25.42;;;12.82;;
40701;SDS011;26387;50.114;8.662;2022-08-19T04:28:40;17.00;;;12.20;;
40701;SDS011;26387;50.114;8.662;2022-08-19T04:31:11;17.65;;;12.55;;
40701;SDS011;26387;50.114;8.662;2022-08-19T04:36:18;15.50;;;11.85;;
40701;SDS011;26387;50.114;8.662;2022-08-19T04:38:50;15.02;;;11.85;;
40701;SDS011;26387;50.114;8.662;2022-08-19T04:41:18;17.67;;;12.33;;
40701;SDS011;26387;50.114;8.662;2022-08-19T04:44:02;17.77;;;11.90;;
40701;SDS011;26387;50.114;8.662;2022-08-19T04:46:27;18.75;;;12.80;;
40701;SDS011;26387;50.114;8.662;2022-08-19T04:48:55;19.20;;;12.80;;
40701;SDS011;26387;50.114;8.662;2022-08-19T04:51:21;20.15;;;13.30;;
40701;SDS011;26387;50.114;8.662;2022-08-19T04:53:47;18.30;;;12.95;;
40701;SDS011;26387;50.114;8.662;2022-08-19T04:56:14;21.08;;;12.95;;
40701;SDS011;26387;50.114;8.662;2022-08-19T04:58:42;19.20;;;13.20;;
40701;SDS011;26387;50.114;8.662;2022-08-19T05:01:11;19.50;;;12.27;;
40701;SDS011;26387;50.114;8.662;2022-08-19T05:03:38;15.75;;;11.45;;
40701;SDS011;26387;50.114;8.662;2022-08-19T05:06:08;18.00;;;11.77;;
40701;SDS011;26387;50.114;8.662;2022-08-19T05:08:35;17.08;;;11.73;;
40701;SDS011;26387;50.114;8.662;2022-08-19T05:11:13;19.58;;;12.02;;
40701;SDS011;26387;50.114;8.662;2022-08-19T05:13:47;19.30;;;12.23;;
40701;SDS011;26387;50.114;8.662;2022-08-19T05:16:14;19.65;;;12.68;;
40701;SDS011;26387;50.114;8.662;2022-08-19T05:18:42;17.88;;;12.10;;
40701;SDS011;26387;50.114;8.662;2022-08-19T05:21:26;17.27;;;11.50;;
40701;SDS011;26387;50.114;8.662;2022-08-19T05:24:12;15.93;;;11.50;;
40701;SDS011;26387;50.114;8.662;2022-08-19T05:26:39;15.85;;;11.52;;
40701;SDS011;26387;50.114;8.662;2022-08-19T05:29:07;16.92;;;11.90;;
40701;SDS011;26387;50.114;8.662;2022-08-19T05:31:33;16.55;;;11.40;;
40701;SDS011;26387;50.114;8.662;2022-08-19T05:34:00;17.90;;;11.02;;
40701;SDS011;26387;50.114;8.662;2022-08-19T05:36:29;14.98;;;11.00;;
40701;SDS011;26387;50.114;8.662;2022-08-19T05:38:59;18.23;;;10.75;;
40701;SDS011;26387;50.114;8.662;2022-08-19T05:41:25;17.38;;;11.13;;
40701;SDS011;26387;50.114;8.662;2022-08-19T05:43:56;18.92;;;10.65;;
40701;SDS011;26387;50.114;8.662;2022-08-19T05:46:22;13.40;;;10.65;;
40701;SDS011;26387;50.114;8.662;2022-08-19T05:48:48;15.23;;;10.25;;
40701;SDS011;26387;50.114;8.662;2022-08-19T05:51:14;13.73;;;10.05;;
40701;SDS011;26387;50.114;8.662;2022-08-19T05:53:41;13.68;;;9.88;;
40701;SDS011;26387;50.114;8.662;2022-08-19T05:56:10;14.77;;;9.77;;
40701;SDS011;26387;50.114;8.662;2022-08-19T05:58:39;14.57;;;9.27;;
40701;SDS011;26387;50.114;8.662;2022-08-19T06:01:09;12.75;;;9.73;;
40701;SDS011;26387;50.114;8.662;2022-08-19T06:03:37;15.15;;;9.50;;
40701;SDS011;26387;50.114;8.662;2022-08-19T06:06:04;17.85;;;9.88;;
40701;SDS011;26387;50.114;8.662;2022-08-19T06:08:33;12.90;;;8.75;;
40701;SDS011;26387;50.114;8.662;2022-08-19T06:11:11;13.63;;;9.10;;
40701;SDS011;26387;50.114;8.662;2022-08-19T06:14:01;13.32;;;8.98;;
40701;SDS011;26387;50.114;8.662;2022-08-19T06:16:29;14.75;;;8.80;;
40701;SDS011;26387;50.114;8.662;2022-08-19T06:18:56;12.98;;;8.40;;
40701;SDS011;26387;50.114;8.662;2022-08-19T06:21:25;15.27;;;8.48;;
40701;SDS011;26387;50.114;8.662;2022-08-19T06:23:52;11.77;;;8.20;;
40701;SDS011;26387;50.114;8.662;2022-08-19T06:26:19;12.98;;;8.10;;
40701;SDS011;26387;50.114;8.662;2022-08-19T06:28:45;13.95;;;7.97;;
40701;SDS011;26387;50.114;8.662;2022-08-19T06:31:12;11.02;;;7.32;;
40701;SDS011;26387;50.114;8.662;2022-08-19T06:33:45;10.85;;;7.82;;
40701;SDS011;26387;50.114;8.662;2022-08-19T06:38:52;12.63;;;7.70;;
40701;SDS011;26387;50.114;8.662;2022-08-19T06:41:17;10.50;;;7.57;;
40701;SDS011;26387;50.114;8.662;2022-08-19T06:43:43;11.02;;;7.32;;
40701;SDS011;26387;50.114;8.662;2022-08-19T06:46:09;9.98;;;7.22;;
40701;SDS011;26387;50.114;8.662;2022-08-19T06:48:37;14.80;;;7.13;;
40701;SDS011;26387;50.114;8.662;2022-08-19T06:51:04;12.95;;;6.82;;
40701;SDS011;26387;50.114;8.662;2022-08-19T06:53:30;11.10;;;7.20;;
40701;SDS011;26387;50.114;8.662;2022-08-19T06:55:56;9.25;;;6.75;;
40701;SDS011;26387;50.114;8.662;2022-08-19T06:58:26;11.25;;;7.25;;
40701;SDS011;26387;50.114;8.662;2022-08-19T07:00:56;11.57;;;6.45;;
40701;SDS011;26387;50.114;8.662;2022-08-19T07:03:27;11.68;;;7.18;;
40701;SDS011;26387;50.114;8.662;2022-08-19T07:05:55;8.50;;;6.47;;
40701;SDS011;26387;50.114;8.662;2022-08-19T07:08:21;9.20;;;6.70;;
40701;SDS011;26387;50.114;8.662;2022-08-19T07:10:46;8.52;;;6.30;;
40701;SDS011;26387;50.114;8.662;2022-08-19T07:13:14;9.88;;;6.45;;
40701;SDS011;26387;50.114;8.662;2022-08-19T07:15:39;9.63;;;6.85;;
40701;SDS011;26387;50.114;8.662;2022-08-19T07:18:05;9.13;;;6.40;;
40701;SDS011;26387;50.114;8.662;2022-08-19T07:20:31;12.52;;;6.82;;
40701;SDS011;26387;50.114;8.662;2022-08-19T07:22:57;8.80;;;6.28;;
40701;SDS011;26387;50.114;8.662;2022-08-19T07:25:23;10.13;;;6.40;;
40701;SDS011;26387;50.114;8.662;2022-08-19T07:27:49;8.65;;;6.53;;
40701;SDS011;26387;50.114;8.662;2022-08-19T07:30:15;8.88;;;6.45;;
40701;SDS011;26387;50.114;8.662;2022-08-19T07:32:41;11.45;;;6.40;;
40701;SDS011;26387;50.114;8.662;2022-08-19T07:35:07;8.13;;;6.00;;
40701;SDS011;26387;50.114;8.662;2022-08-19T07:37:34;9.48;;;6.05;;
40701;SDS011;26387;50.114;8.662;2022-08-19T07:40:02;9.52;;;6.85;;
40701;SDS011;26387;50.114;8.662;2022-08-19T07:42:30;12.07;;;6.70;;
40701;SDS011;26387;50.114;8.662;2022-08-19T07:44:55;10.70;;;6.78;;
40701;SDS011;26387;50.114;8.662;2022-08-19T07:47:22;9.65;;;6.75;;
40701;SDS011;26387;50.114;8.662;2022-08-19T07:49:47;10.63;;;6.25;;
40701;SDS011;26387;50.114;8.662;2022-08-19T07:52:13;10.57;;;6.32;;
40701;SDS011;26387;50.114;8.662;2022-08-19T07:54:39;8.52;;;5.72;;
40701;SDS011;26387;50.114;8.662;2022-08-19T07:57:06;8.80;;;5.85;;
40701;SDS011;26387;50.114;8.662;2022-08-19T07:59:32;11.90;;;5.45;;
40701;SDS011;26387;50.114;8.662;2022-08-19T08:01:59;8.20;;;5.93;;
40701;SDS011;26387;50.114;8.662;2022-08-19T08:04:25;8.77;;;6.20;;
40701;SDS011;26387;50.114;8.662;2022-08-19T08:07:10;7.20;;;5.60;;
40701;SDS011;26387;50.114;8.662;2022-08-19T08:09:54;9.48;;;5.80;;
40701;SDS011;26387;50.114;8.662;2022-08-19T08:12:24;9.77;;;5.65;;
40701;SDS011;26387;50.114;8.662;2022-08-19T08:14:54;10.05;;;6.13;;
40701;SDS011;26387;50.114;8.662;2022-08-19T08:17:22;10.85;;;6.00;;
40701;SDS011;26387;50.114;8.662;2022-08-19T08:19:50;10.52;;;6.00;;
40701;SDS011;26387;50.114;8.662;2022-08-19T08:22:17;7.28;;;5.57;;
40701;SDS011;26387;50.114;8.662;2022-08-19T08:25:05;8.95;;;5.75;;
40701;SDS011;26387;50.114;8.662;2022-08-19T08:27:39;8.95;;;5.65;;
40701;SDS011;26387;50.114;8.662;2022-08-19T08:30:07;9.10;;;5.35;;
40701;SDS011;26387;50.114;8.662;2022-08-19T08:32:38;8.90;;;5.90;;
40701;SDS011;26387;50.114;8.662;2022-08-19T08:35:05;8.18;;;6.22;;
40701;SDS011;26387;50.114;8.662;2022-08-19T08:37:32;9.18;;;6.43;;
40701;SDS011;26387;50.114;8.662;2022-08-19T08:39:58;11.52;;;6.50;;
40701;SDS011;26387;50.114;8.662;2022-08-19T08:42:30;8.00;;;6.03;;
40701;SDS011;26387;50.114;8.662;2022-08-19T08:45:12;12.00;;;5.45;;
40701;SDS011;26387;50.114;8.662;2022-08-19T08:47:41;7.55;;;5.93;;
40701;SDS011;26387;50.114;8.662;2022-08-19T08:53:17;7.88;;;5.60;;
40701;SDS011;26387;50.114;8.662;2022-08-19T08:55:44;7.85;;;5.40;;
40701;SDS011;26387;50.114;8.662;2022-08-19T08:58:15;9.55;;;6.00;;
40701;SDS011;26387;50.114;8.662;2022-08-19T09:00:49;8.45;;;5.57;;
40701;SDS011;26387;50.114;8.662;2022-08-19T09:11:33;12.02;;;5.85;;
40701;SDS011;26387;50.114;8.662;2022-08-19T09:14:08;8.27;;;5.75;;
40701;SDS011;26387;50.114;8.662;2022-08-19T09:16:57;7.35;;;5.47;;
40701;SDS011;26387;50.114;8.662;2022-08-19T09:19:24;11.02;;;5.88;;
40701;SDS011;26387;50.114;8.662;2022-08-19T09:21:50;7.28;;;5.13;;
40701;SDS011;26387;50.114;8.662;2022-08-19T09:24:15;9.68;;;5.53;;
40701;SDS011;26387;50.114;8.662;2022-08-19T09:26:41;8.93;;;5.30;;
40701;SDS011;26387;50.114;8.662;2022-08-19T09:29:08;5.70;;;4.88;;
40701;SDS011;26387;50.114;8.662;2022-08-19T09:31:35;6.55;;;5.18;;
40701;SDS011;26387;50.114;8.662;2022-08-19T09:34:00;8.48;;;5.63;;
40701;SDS011;26387;50.114;8.662;2022-08-19T09:36:29;10.52;;;5.30;;
40701;SDS011;26387;50.114;8.662;2022-08-19T09:38:58;7.97;;;4.88;;
40701;SDS011;26387;50.114;8.662;2022-08-19T09:41:25;7.75;;;5.65;;
40701;SDS011;26387;50.114;8.662;2022-08-19T09:43:52;7.10;;;5.32;;
40701;SDS011;26387;50.114;8.662;2022-08-19T09:46:26;8.65;;;5.80;;
40701;SDS011;26387;50.114;8.662;2022-08-19T09:48:53;6.68;;;5.28;;
40701;SDS011;26387;50.114;8.662;2022-08-19T09:51:21;8.60;;;5.95;;
40701;SDS011;26387;50.114;8.662;2022-08-19T09:53:48;8.38;;;5.82;;
40701;SDS011;26387;50.114;8.662;2022-08-19T09:56:16;11.63;;;6.35;;
40701;SDS011;26387;50.114;8.662;2022-08-19T09:58:43;8.43;;;6.18;;
40701;SDS011;26387;50.114;8.662;2022-08-19T10:01:14;9.65;;;6.38;;
40701;SDS011;26387;50.114;8.662;2022-08-19T10:03:53;8.57;;;6.07;;
40701;SDS011;26387;50.114;8.662;2022-08-19T10:06:21;12.30;;;6.32;;
40701;SDS011;26387;50.114;8.662;2022-08-19T10:08:49;10.05;;;5.65;;
40701;SDS011;26387;50.114;8.662;2022-08-19T10:11:16;6.85;;;5.63;;
40701;SDS011;26387;50.114;8.662;2022-08-19T10:13:43;8.60;;;5.85;;
40701;SDS011;26387;50.114;8.662;2022-08-19T10:16:13;12.20;;;6.93;;
40701;SDS011;26387;50.114;8.662;2022-08-19T10:18:42;12.55;;;6.95;;
40701;SDS011;26387;50.114;8.662;2022-08-19T10:21:12;8.63;;;6.80;;
40701;SDS011;26387;50.114;8.662;2022-08-19T10:23:43;10.55;;;7.00;;
40701;SDS011;26387;50.114;8.662;2022-08-19T10:26:10;12.60;;;6.55;;
40701;SDS011;26387;50.114;8.662;2022-08-19T10:28:38;8.63;;;6.30;;
40701;SDS011;26387;50.114;8.662;2022-08-19T10:31:15;9.32;;;7.07;;
40701;SDS011;26387;50.114;8.662;2022-08-19T10:33:44;9.20;;;6.60;;
40701;SDS011;26387;50.114;8.662;2022-08-19T10:36:15;7.72;;;6.65;;
40701;SDS011;26387;50.114;8.662;2022-08-19T10:38:48;12.25;;;6.55;;
40701;SDS011;26387;50.114;8.662;2022-08-19T10:41:17;12.40;;;7.15;;
40701;SDS011;26387;50.114;8.662;2022-08-19T10:43:44;13.73;;;7.35;;
40701;SDS011;26387;50.114;8.662;2022-08-19T10:46:11;8.40;;;6.90;;
40701;SDS011;26387;50.114;8.662;2022-08-19T10:48:40;11.63;;;7.53;;
40701;SDS011;26387;50.114;8.662;2022-08-19T10:51:06;12.90;;;9.00;;
40701;SDS011;26387;50.114;8.662;2022-08-19T10:53:51;14.32;;;7.95;;
40701;SDS011;26387;50.114;8.662;2022-08-19T10:56:17;14.43;;;7.95;;
40701;SDS011;26387;50.114;8.662;2022-08-19T10:59:02;11.95;;;8.75;;
40701;SDS011;26387;50.114;8.662;2022-08-19T11:01:30;11.10;;;9.25;;
40701;SDS011;26387;50.114;8.662;2022-08-19T11:03:58;15.65;;;9.88;;
40701;SDS011;26387;50.114;8.662;2022-08-19T11:06:25;13.68;;;9.77;;
40701;SDS011;26387;50.114;8.662;2022-08-19T11:08:54;11.60;;;9.55;;
40701;SDS011;26387;50.114;8.662;2022-08-19T11:11:20;11.52;;;9.20;;
40701;SDS011;26387;50.114;8.662;2022-08-19T11:13:46;14.02;;;9.90;;
40701;SDS011;26387;50.114;8.662;2022-08-19T11:16:14;14.52;;;11.15;;
40701;SDS011;26387;50.114;8.662;2022-08-19T11:18:43;15.93;;;10.73;;
40701;SDS011;26387;50.114;8.662;2022-08-19T11:21:14;12.68;;;10.27;;
40701;SDS011;26387;50.114;8.662;2022-08-19T11:23:45;15.00;;;9.82;;
40701;SDS011;26387;50.114;8.662;2022-08-19T11:26:13;16.23;;;10.65;;
40701;SDS011;26387;50.114;8.662;2022-08-19T11:28:39;14.38;;;11.02;;
40701;SDS011;26387;50.114;8.662;2022-08-19T11:31:12;16.08;;;11.10;;
40701;SDS011;26387;50.114;8.662;2022-08-19T11:33:43;17.45;;;11.35;;
40701;SDS011;26387;50.114;8.662;2022-08-19T11:36:09;11.80;;;10.57;;
40701;SDS011;26387;50.114;8.662;2022-08-19T11:38:35;16.25;;;11.30;;
40701;SDS011;26387;50.114;8.662;2022-08-19T11:41:02;13.32;;;10.68;;
40701;SDS011;26387;50.114;8.662;2022-08-19T11:43:30;13.63;;;11.02;;
40701;SDS011;26387;50.114;8.662;2022-08-19T11:45:56;11.40;;;10.02;;
40701;SDS011;26387;50.114;8.662;2022-08-19T11:48:23;11.45;;;9.95;;
40701;SDS011;26387;50.114;8.662;2022-08-19T11:50:49;10.30;;;9.20;;
40701;SDS011;26387;50.114;8.662;2022-08-19T11:53:22;10.38;;;9.20;;
40701;SDS011;26387;50.114;8.662;2022-08-19T11:55:48;11.02;;;9.85;;
40701;SDS011;26387;50.114;8.662;2022-08-19T11:58:15;13.38;;;10.05;;
40701;SDS011;26387;50.114;8.662;2022-08-19T12:00:42;10.77;;;9.60;;
40701;SDS011;26387;50.114;8.662;2022-08-19T12:03:09;12.75;;;11.25;;
40701;SDS011;26387;50.114;8.662;2022-08-19T12:05:37;13.88;;;9.80;;
40701;SDS011;26387;50.114;8.662;2022-08-19T12:08:04;11.82;;;9.80;;
40701;SDS011;26387;50.114;8.662;2022-08-19T12:10:29;14.10;;;9.48;;
40701;SDS011;26387;50.114;8.662;2022-08-19T12:12:55;12.55;;;8.80;;
40701;SDS011;26387;50.114;8.662;2022-08-19T12:15:20;10.98;;;9.15;;
40701;SDS011;26387;50.114;8.662;2022-08-19T12:17:46;11.20;;;8.52;;
40701;SDS011;26387;50.114;8.662;2022-08-19T12:20:12;15.00;;;9.35;;
40701;SDS011;26387;50.114;8.662;2022-08-19T12:22:40;11.25;;;9.10;;
40701;SDS011;26387;50.114;8.662;2022-08-19T12:25:06;11.07;;;8.23;;
40701;SDS011;26387;50.114;8.662;2022-08-19T12:27:34;11.18;;;9.18;;
40701;SDS011;26387;50.114;8.662;2022-08-19T12:30:00;12.98;;;9.30;;
40701;SDS011;26387;50.114;8.662;2022-08-19T12:32:26;8.95;;;7.90;;
40701;SDS011;26387;50.114;8.662;2022-08-19T12:34:52;9.05;;;8.15;;
40701;SDS011;26387;50.114;8.662;2022-08-19T12:37:18;11.18;;;8.30;;
40701;SDS011;26387;50.114;8.662;2022-08-19T12:39:45;9.20;;;8.20;;
40701;SDS011;26387;50.114;8.662;2022-08-19T12:42:11;9.23;;;8.38;;
40701;SDS011;26387;50.114;8.662;2022-08-19T12:44:38;9.95;;;8.98;;
40701;SDS011;26387;50.114;8.662;2022-08-19T12:47:05;11.57;;;10.02;;
40701;SDS011;26387;50.114;8.662;2022-08-19T12:49:32;11.48;;;9.25;;
40701;SDS011;26387;50.114;8.662;2022-08-19T12:52:03;13.32;;;9.27;;
40701;SDS011;26387;50.114;8.662;2022-08-19T12:54:29;10.85;;;8.80;;
40701;SDS011;26387;50.114;8.662;2022-08-19T12:56:56;8.50;;;7.70;;
40701;SDS011;26387;50.114;8.662;2022-08-19T12:59:22;10.18;;;7.93;;
40701;SDS011;26387;50.114;8.662;2022-08-19T13:01:48;10.60;;;8.25;;
40701;SDS011;26387;50.114;8.662;2022-08-19T13:04:14;9.18;;;8.05;;
40701;SDS011;26387;50.114;8.662;2022-08-19T13:06:41;11.57;;;9.25;;
40701;SDS011;26387;50.114;8.662;2022-08-19T13:09:07;9.00;;;8.10;;
40701;SDS011;26387;50.114;8.662;2022-08-19T13:11:33;11.65;;;8.10;;
40701;SDS011;26387;50.114;8.662;2022-08-19T13:13:59;7.38;;;6.68;;
40701;SDS011;26387;50.114;8.662;2022-08-19T13:16:26;9.40;;;6.68;;
40701;SDS011;26387;50.114;8.662;2022-08-19T13:18:53;9.60;;;6.97;;
40701;SDS011;26387;50.114;8.662;2022-08-19T13:21:20;8.18;;;6.05;;
40701;SDS011;26387;50.114;8.662;2022-08-19T13:23:48;9.43;;;6.20;;
40701;SDS011;26387;50.114;8.662;2022-08-19T13:26:15;7.65;;;6.30;;
40701;SDS011;26387;50.114;8.662;2022-08-19T13:28:42;6.20;;;5.57;;
40701;SDS011;26387;50.114;8.662;2022-08-19T13:31:30;7.55;;;5.50;;
40701;SDS011;26387;50.114;8.662;2022-08-19T13:34:18;5.72;;;5.22;;
40701;SDS011;26387;50.114;8.662;2022-08-19T13:36:44;7.63;;;5.43;;
40701;SDS011;26387;50.114;8.662;2022-08-19T13:39:11;7.57;;;4.97;;
40701;SDS011;26387;50.114;8.662;2022-08-19T13:41:37;13.30;;;5.70;;
40701;SDS011;26387;50.114;8.662;2022-08-19T13:44:08;7.50;;;5.63;;
40701;SDS011;26387;50.114;8.662;2022-08-19T13:46:34;11.77;;;5.70;;
40701;SDS011;26387;50.114;8.662;2022-08-19T13:48:59;6.13;;;5.35;;
40701;SDS011;26387;50.114;8.662;2022-08-19T13:51:25;7.38;;;5.15;;
40701;SDS011;26387;50.114;8.662;2022-08-19T13:53:50;5.20;;;4.70;;
40701;SDS011;26387;50.114;8.662;2022-08-19T13:56:17;5.65;;;5.05;;
40701;SDS011;26387;50.114;8.662;2022-08-19T13:58:46;5.78;;;4.85;;
40701;SDS011;26387;50.114;8.662;2022-08-19T14:01:12;6.93;;;5.25;;
40701;SDS011;26387;50.114;8.662;2022-08-19T14:03:43;5.70;;;4.90;;
40701;SDS011;26387;50.114;8.662;2022-08-19T14:06:09;5.35;;;4.50;;
40701;SDS011;26387;50.114;8.662;2022-08-19T14:08:35;7.63;;;4.55;;
40701;SDS011;26387;50.114;8.662;2022-08-19T14:11:04;5.18;;;4.53;;
40701;SDS011;26387;50.114;8.662;2022-08-19T14:13:30;5.55;;;4.50;;
40701;SDS011;26387;50.114;8.662;2022-08-19T14:15:57;5.97;;;4.30;;
40701;SDS011;26387;50.114;8.662;2022-08-19T14:18:23;8.90;;;4.60;;
40701;SDS011;26387;50.114;8.662;2022-08-19T14:20:50;4.72;;;4.30;;
40701;SDS011;26387;50.114;8.662;2022-08-19T14:23:16;5.15;;;4.07;;
40701;SDS011;26387;50.114;8.662;2022-08-19T14:25:41;4.97;;;4.03;;
40701;SDS011;26387;50.114;8.662;2022-08-19T14:28:08;6.55;;;4.38;;
40701;SDS011;26387;50.114;8.662;2022-08-19T14:30:35;4.18;;;3.78;;
40701;SDS011;26387;50.114;8.662;2022-08-19T14:33:03;4.25;;;3.55;;
40701;SDS011;26387;50.114;8.662;2022-08-19T14:35:30;5.53;;;3.92;;
40701;SDS011;26387;50.114;8.662;2022-08-19T14:37:59;4.60;;;3.88;;
40701;SDS011;26387;50.114;8.662;2022-08-19T14:40:26;4.68;;;3.70;;
40701;SDS011;26387;50.114;8.662;2022-08-19T14:42:53;5.45;;;3.58;;
40701;SDS011;26387;50.114;8.662;2022-08-19T14:45:24;4.27;;;3.80;;
40701;SDS011;26387;50.114;8.662;2022-08-19T14:47:50;5.95;;;3.35;;
40701;SDS011;26387;50.114;8.662;2022-08-19T14:50:16;5.07;;;3.70;;
40701;SDS011;26387;50.114;8.662;2022-08-19T14:52:42;3.80;;;3.40;;
40701;SDS011;26387;50.114;8.662;2022-08-19T14:55:08;5.32;;;3.72;;
40701;SDS011;26387;50.114;8.662;2022-08-19T14:57:34;4.70;;;3.60;;
40701;SDS011;26387;50.114;8.662;2022-08-19T15:00:00;5.68;;;3.72;;